Matagami Airport
CYNM : now visible

Airfield :











YOU CAN JOIN US ON...

 
LOGIN :

Register | Disclaimer

   EN    FR    IT 

 









Legend :    VFR   Marginal VFR   IFR   Intensive IFR   Very Intensive IFR
Visi :
Ceiling :
>= 8 km
>= 3000ft
5 to 8 km
1000 to 3000 ft
1500m to 5 km
500 to 1000 ft
800 to 1500m
200 to 500 ft
< 800m
< 200 ft
Symbols :   Thunderstorms  Fog  Heavy snow  Heavy precipitations  Wind > 20 kt






- Airport Elevation : 918 ft
- IATA code : YNM


CYNM - Matagami

CURRENT METAR :
  • 261300Z AUTO 18009KT 1SM BR VV003 06/06 A2972 RMK SLP076

EXPIRED METARs :
  • 261200Z AUTO 15005KT 3/8SM FG VV003 05/05 A2974 RMK SLP079
  • 261150Z AUTO 14005KT 1 1/4SM BR OVC002 05/05 A2974 RMK SLP083
  • 261143Z AUTO 16004KT 4SM BR BKN004 OVC060 05/05 A2974 RMK SLP083
  • 261131Z AUTO 16005KT 9SM BKN004 OVC060 05/05 A2973 RMK SLP082
  • 261111Z AUTO 17006KT 9SM SCT002 OVC060 05/05 A2972 RMK SLP079
  • 261100Z AUTO 16006KT 9SM BKN002 OVC071 04/04 A2972 RMK SLP074
  • 261057Z AUTO 16006KT 4SM BR BKN002 OVC071 04/04 A2972 RMK SLP079
  • 261000Z AUTO 17004KT 1/4SM FG VV001 04/04 A2973 RMK SLP076

TAF N/A
CZUL FIR / North America



MET'MAP, your aeronautical weather chart ! - Copyright ORBIFLY December 2007 - Disclaimer

ORBIFLY MET'MAP TEAM :

Programming & Development : Alexandra Zaïnal
Concept & original design : Baudouin d'Aumeries
Assistance for programming : Marc-Olivier Méhu
Technical & hardware support : Manuel Goepfert

Contact : metmap@orbifly.com




SOURCES & CREDITS :

   NOAA       Earth
Advisory